createdAt,value
2022-10-29T00:02:07.040Z,24.20
2022-10-29T00:04:37.589Z,21.20
2022-10-29T00:07:08.153Z,20.30
2022-10-29T00:09:37.876Z,19.10
2022-10-29T00:12:09.117Z,17.80
2022-10-29T00:14:39.670Z,17.90
2022-10-29T00:17:09.737Z,18.20
2022-10-29T00:19:39.305Z,18.00
2022-10-29T00:22:10.082Z,19.20
2022-10-29T00:24:40.527Z,20.50
2022-10-29T00:27:11.204Z,17.20
2022-10-29T00:29:40.054Z,14.80
2022-10-29T00:32:10.555Z,16.20
2022-10-29T00:34:41.074Z,16.40
2022-10-29T00:37:11.760Z,14.40
2022-10-29T00:39:41.442Z,19.80
2022-10-29T00:42:18.496Z,14.90
2022-10-29T00:44:48.486Z,16.80
2022-10-29T00:47:32.499Z,17.20
2022-10-29T00:50:13.565Z,16.20
2022-10-29T00:52:47.803Z,19.30
2022-10-29T00:55:18.472Z,15.20
2022-10-29T00:57:53.104Z,15.40
2022-10-29T01:00:23.843Z,14.80
2022-10-29T01:02:54.723Z,15.90
2022-10-29T01:05:28.874Z,17.20
2022-10-29T01:07:57.837Z,19.10
2022-10-29T01:10:37.393Z,18.50
2022-10-29T01:13:20.081Z,19.40
2022-10-29T01:16:01.185Z,16.00
2022-10-29T01:18:56.363Z,16.20
2022-10-29T01:21:44.052Z,16.50
2022-10-29T01:24:47.871Z,18.10
2022-10-29T01:27:54.444Z,16.00
2022-10-29T01:31:02.187Z,14.40
2022-10-29T01:33:57.218Z,18.40
2022-10-29T01:37:04.178Z,15.50
2022-10-29T01:40:06.393Z,17.00
2022-10-29T01:42:46.127Z,18.00
2022-10-29T01:45:21.642Z,16.30
2022-10-29T01:47:59.312Z,17.90
2022-10-29T01:50:30.718Z,16.50
2022-10-29T01:53:04.582Z,18.40
2022-10-29T01:55:35.754Z,19.50
2022-10-29T01:58:11.481Z,15.00
2022-10-29T02:00:45.028Z,17.50
2022-10-29T02:03:58.501Z,20.40
2022-10-29T02:06:49.690Z,17.00
2022-10-29T02:09:39.591Z,17.10
2022-10-29T02:12:11.878Z,21.20
2022-10-29T02:14:48.892Z,18.00
2022-10-29T02:17:19.677Z,17.60
2022-10-29T02:19:50.295Z,11.50
2022-10-29T02:22:21.060Z,15.20
2022-10-29T02:24:49.902Z,18.50
2022-10-29T02:27:20.027Z,16.40
2022-10-29T02:29:50.385Z,18.20
2022-10-29T02:32:21.084Z,14.30
2022-10-29T02:34:50.753Z,15.70
2022-10-29T02:37:21.139Z,19.40
2022-10-29T02:39:51.659Z,25.80
2022-10-29T02:42:20.577Z,23.30
2022-10-29T02:44:52.521Z,17.40
2022-10-29T02:47:23.032Z,17.00
2022-10-29T02:49:53.536Z,21.40
2022-10-29T02:52:24.385Z,21.90
2022-10-29T02:54:54.486Z,19.70
2022-10-29T02:57:24.633Z,17.60
2022-10-29T02:59:55.351Z,19.30
2022-10-29T03:02:26.002Z,18.90
2022-10-29T03:04:55.735Z,17.20
2022-10-29T03:07:27.829Z,16.30
2022-10-29T03:09:58.378Z,18.40
2022-10-29T03:12:29.028Z,17.60
2022-10-29T03:14:59.080Z,20.30
2022-10-29T03:17:29.064Z,18.90
2022-10-29T03:19:59.978Z,16.50
2022-10-29T03:22:30.857Z,17.20
2022-10-29T03:25:01.486Z,17.40
2022-10-29T03:27:32.201Z,22.30
2022-10-29T03:30:02.692Z,16.20
2022-10-29T03:32:32.806Z,16.30
2022-10-29T03:35:04.323Z,16.80
2022-10-29T03:37:35.161Z,16.80
2022-10-29T03:40:07.076Z,15.00
2022-10-29T03:42:40.333Z,11.20
2022-10-29T03:45:11.081Z,12.50
2022-10-29T03:47:41.921Z,14.10
2022-10-29T03:50:12.674Z,18.10
2022-10-29T03:52:43.783Z,17.40
2022-10-29T03:55:14.119Z,12.90
2022-10-29T03:57:44.304Z,11.20
2022-10-29T04:00:14.379Z,10.20
2022-10-29T04:02:44.445Z,14.90
2022-10-29T04:05:14.453Z,14.20
2022-10-29T04:07:44.427Z,16.50
2022-10-29T04:10:14.397Z,17.90
2022-10-29T04:12:47.121Z,17.00
2022-10-29T04:15:17.394Z,15.90
2022-10-29T04:17:51.588Z,20.10
2022-10-29T04:20:47.652Z,21.20
2022-10-29T04:25:31.805Z,20.20
2022-10-29T04:28:54.155Z,16.20
2022-10-29T04:31:23.657Z,16.90
2022-10-29T04:33:56.698Z,19.20
2022-10-29T04:36:26.902Z,26.30
2022-10-29T04:38:57.026Z,23.40
2022-10-29T04:41:27.461Z,23.60
2022-10-29T04:43:57.737Z,23.00
2022-10-29T04:46:27.333Z,22.50
2022-10-29T04:48:56.104Z,22.00
2022-10-29T04:51:27.067Z,15.30
2022-10-29T04:53:57.152Z,15.10
2022-10-29T04:56:27.477Z,11.20
2022-10-29T04:58:58.063Z,10.20
2022-10-29T05:01:27.175Z,11.50
2022-10-29T05:04:00.038Z,14.70
2022-10-29T05:06:31.783Z,25.40
2022-10-29T05:09:02.220Z,29.30
2022-10-29T05:11:32.591Z,22.50
2022-10-29T05:14:02.483Z,21.00
2022-10-29T05:16:31.447Z,20.80
2022-10-29T05:19:01.860Z,26.30
2022-10-29T05:21:32.185Z,22.00
2022-10-29T05:24:00.850Z,22.00
2022-10-29T05:26:33.069Z,21.40
2022-10-29T05:29:03.450Z,22.40
2022-10-29T05:31:32.137Z,22.30
2022-10-29T05:34:02.455Z,20.50
2022-10-29T05:36:32.497Z,19.80
2022-10-29T05:39:02.819Z,20.20
2022-10-29T05:41:33.767Z,23.70
2022-10-29T05:44:04.995Z,25.20
2022-10-29T05:46:35.585Z,26.70
2022-10-29T05:49:06.079Z,24.50
2022-10-29T05:51:36.292Z,23.40
2022-10-29T05:54:06.689Z,19.20
2022-10-29T05:56:35.573Z,23.70
2022-10-29T05:59:05.999Z,22.10
2022-10-29T06:01:37.850Z,20.80
2022-10-29T06:04:07.959Z,20.30
2022-10-29T06:06:39.279Z,19.80
2022-10-29T06:09:09.963Z,22.30
2022-10-29T06:11:39.469Z,25.10
2022-10-29T06:14:08.210Z,22.20
2022-10-29T06:16:38.140Z,22.00
2022-10-29T06:19:08.150Z,26.50
2022-10-29T06:21:38.497Z,24.80
2022-10-29T06:24:09.051Z,24.70
2022-10-29T06:26:38.949Z,26.00
2022-10-29T06:29:07.831Z,23.40
2022-10-29T06:31:38.173Z,29.20
2022-10-29T06:34:08.692Z,20.40
2022-10-29T06:36:39.514Z,20.20
2022-10-29T06:39:09.946Z,18.30
2022-10-29T06:41:40.283Z,27.20
2022-10-29T06:44:11.147Z,16.80
2022-10-29T06:46:42.020Z,18.90
2022-10-29T06:49:12.929Z,19.30
2022-10-29T06:51:42.738Z,18.20
2022-10-29T06:54:13.252Z,18.10
2022-10-29T06:56:42.016Z,17.60
2022-10-29T06:59:12.233Z,17.10
2022-10-29T07:01:42.218Z,17.50
2022-10-29T07:04:12.221Z,15.90
2022-10-29T07:06:43.603Z,16.40
2022-10-29T07:09:13.557Z,18.70
2022-10-29T07:11:43.655Z,13.50
2022-10-29T07:14:13.180Z,12.70
2022-10-29T07:16:47.023Z,11.60
2022-10-29T07:19:16.836Z,10.10
2022-10-29T07:21:46.983Z,10.20
2022-10-29T07:24:18.379Z,7.40
2022-10-29T07:26:51.269Z,6.60
2022-10-29T07:29:21.574Z,8.70
2022-10-29T07:31:52.030Z,9.00
2022-10-29T07:34:22.346Z,8.80
2022-10-29T07:36:52.587Z,7.90
2022-10-29T07:39:23.220Z,9.20
2022-10-29T07:41:54.121Z,7.20
2022-10-29T07:44:28.111Z,8.60
2022-10-29T07:46:58.770Z,8.10
2022-10-29T07:49:29.019Z,9.60
2022-10-29T07:51:59.381Z,9.30
2022-10-29T07:54:28.888Z,7.50
2022-10-29T07:56:58.719Z,6.50
2022-10-29T07:59:28.629Z,6.40
2022-10-29T08:01:59.058Z,6.20
2022-10-29T08:04:29.075Z,8.00
2022-10-29T08:06:58.599Z,7.20
2022-10-29T08:09:28.072Z,7.50
2022-10-29T08:11:56.946Z,5.70
2022-10-29T08:14:26.839Z,6.10
2022-10-29T08:16:58.979Z,6.30
2022-10-29T08:19:30.408Z,6.60
2022-10-29T08:22:00.236Z,6.60
2022-10-29T08:24:30.228Z,7.60
2022-10-29T08:27:01.662Z,7.20
2022-10-29T08:29:30.441Z,19.00
2022-10-29T08:32:00.541Z,9.80
2022-10-29T08:34:30.545Z,8.30
2022-10-29T08:37:00.511Z,7.10
2022-10-29T08:39:31.665Z,9.70
2022-10-29T08:42:26.554Z,7.60
2022-10-29T08:45:25.889Z,8.70
2022-10-29T08:48:23.565Z,8.70
2022-10-29T08:53:54.163Z,8.10
2022-10-29T08:56:40.369Z,10.00
2022-10-29T08:59:15.954Z,7.40
2022-10-29T09:01:46.953Z,7.10
2022-10-29T09:04:36.047Z,7.00
2022-10-29T09:07:26.681Z,7.30
2022-10-29T09:10:26.349Z,7.90
2022-10-29T09:13:21.642Z,7.70
2022-10-29T09:16:10.534Z,8.20
2022-10-29T09:18:50.065Z,8.00
2022-10-29T09:21:22.736Z,9.10
2022-10-29T09:24:10.102Z,10.20
2022-10-29T09:26:55.879Z,7.80
2022-10-29T09:29:39.510Z,7.20
2022-10-29T09:32:16.007Z,8.20
2022-10-29T09:34:51.232Z,8.20
2022-10-29T09:38:00.673Z,8.60
2022-10-29T09:40:40.622Z,10.50
2022-10-29T09:43:25.682Z,9.60
2022-10-29T09:46:34.610Z,14.00
2022-10-29T09:49:36.069Z,10.40
2022-10-29T09:52:19.875Z,10.10
2022-10-29T09:54:53.198Z,8.50
2022-10-29T09:57:27.388Z,9.70
2022-10-29T09:59:58.921Z,9.60
2022-10-29T10:02:50.213Z,8.40
2022-10-29T10:05:33.325Z,9.50
2022-10-29T10:08:07.222Z,8.90
2022-10-29T10:10:53.114Z,7.70
2022-10-29T10:13:27.680Z,7.50
2022-10-29T10:16:01.508Z,8.10
2022-10-29T10:18:33.220Z,7.10
2022-10-29T10:21:05.883Z,12.10
2022-10-29T10:23:49.291Z,10.40
2022-10-29T10:26:35.650Z,9.30
2022-10-29T10:29:13.849Z,9.70
2022-10-29T10:31:48.238Z,8.00
2022-10-29T10:34:26.026Z,8.70
2022-10-29T10:37:03.268Z,9.30
2022-10-29T10:39:39.081Z,7.20
2022-10-29T10:42:45.801Z,8.20
2022-10-29T10:45:18.659Z,10.30
2022-10-29T10:47:58.387Z,9.00
2022-10-29T10:50:34.073Z,6.70
2022-10-29T10:53:23.539Z,7.80
2022-10-29T10:56:00.773Z,8.20
2022-10-29T10:58:45.819Z,10.60
2022-10-29T11:15:25.247Z,10.90
2022-10-29T12:09:32.357Z,11.00
2022-10-29T12:12:34.263Z,12.40
2022-10-29T12:15:20.666Z,13.80
2022-10-29T12:18:26.655Z,14.50
2022-10-29T12:21:28.804Z,11.20
2022-10-29T12:24:33.024Z,10.10
2022-10-29T12:27:20.906Z,14.80
2022-10-29T12:30:18.824Z,19.50
2022-10-29T12:35:59.525Z,11.20
2022-10-29T12:38:44.370Z,10.00
2022-10-29T12:41:25.999Z,14.00
2022-10-29T12:44:24.453Z,10.00
2022-10-29T12:47:08.837Z,14.00
2022-10-29T12:49:44.600Z,12.80
2022-10-29T12:52:24.638Z,12.70
2022-10-29T12:55:01.363Z,12.00
2022-10-29T12:57:36.764Z,15.60
2022-10-29T13:00:24.519Z,17.40
2022-10-29T13:02:56.588Z,14.80
2022-10-29T13:05:43.728Z,13.10
2022-10-29T13:08:34.771Z,10.30
2022-10-29T13:11:20.389Z,13.10
2022-10-29T13:13:55.762Z,16.60
2022-10-29T13:16:29.652Z,23.80
2022-10-29T13:19:15.730Z,19.30
2022-10-29T13:22:04.886Z,23.30
2022-10-29T13:24:36.788Z,18.70
2022-10-29T13:27:29.906Z,15.80
2022-10-29T13:30:22.754Z,18.40
2022-10-29T13:32:56.286Z,26.40
2022-10-29T13:35:27.925Z,18.40
2022-10-29T13:38:12.630Z,16.50
2022-10-29T13:41:20.025Z,15.90
2022-10-29T13:44:02.499Z,17.30
2022-10-29T13:47:05.728Z,30.60
2022-10-29T13:49:49.503Z,49.50
2022-10-29T13:52:21.560Z,31.90
2022-10-29T13:54:59.100Z,22.10
2022-10-29T13:58:00.303Z,20.80
2022-10-29T14:00:33.249Z,20.20
2022-10-29T14:03:22.712Z,19.90
2022-10-29T14:06:07.698Z,14.80
2022-10-29T14:09:02.980Z,16.90
2022-10-29T14:11:40.913Z,16.10
2022-10-29T14:14:32.227Z,13.20
2022-10-29T14:17:13.363Z,12.80
2022-10-29T14:19:48.704Z,13.90
2022-10-29T14:22:25.212Z,11.20
2022-10-29T14:24:57.909Z,14.20
2022-10-29T14:27:26.761Z,13.50
2022-10-29T14:30:14.525Z,13.10
2022-10-29T14:32:45.884Z,12.10
2022-10-29T14:35:16.995Z,16.70
2022-10-29T14:37:48.892Z,12.80
2022-10-29T14:40:23.885Z,14.30
2022-10-29T14:42:57.243Z,14.10
2022-10-29T14:45:33.239Z,14.20
2022-10-29T14:48:11.735Z,15.50
2022-10-29T14:50:50.594Z,13.80
2022-10-29T14:53:31.984Z,12.20
2022-10-29T14:56:09.735Z,11.50
2022-10-29T14:58:41.976Z,21.40
2022-10-29T15:01:21.039Z,29.80
2022-10-29T15:04:02.346Z,29.00
2022-10-29T15:06:34.204Z,20.00
2022-10-29T15:09:14.776Z,26.00
2022-10-29T15:12:03.816Z,20.20
2022-10-29T15:14:51.950Z,21.60
2022-10-29T15:17:28.862Z,16.60
2022-10-29T15:20:02.788Z,18.00
2022-10-29T15:22:38.893Z,23.50
2022-10-29T15:25:17.412Z,20.10
2022-10-29T15:27:47.359Z,16.50
2022-10-29T15:30:32.658Z,30.90
2022-10-29T15:33:09.273Z,20.20
2022-10-29T15:35:57.464Z,21.30
2022-10-29T15:38:32.161Z,18.30
2022-10-29T15:41:13.388Z,29.00
2022-10-29T15:44:27.642Z,48.70
2022-10-29T15:46:59.782Z,42.70
2022-10-29T15:49:32.705Z,41.50
2022-10-29T15:52:04.105Z,56.10
2022-10-29T15:54:34.840Z,44.40
2022-10-29T15:57:08.271Z,40.70
2022-10-29T15:59:40.633Z,32.80
2022-10-29T16:02:12.474Z,39.90
2022-10-29T16:04:44.598Z,48.40
2022-10-29T16:07:16.742Z,39.60
2022-10-29T16:09:50.861Z,28.60
2022-10-29T16:12:21.319Z,25.30
2022-10-29T16:14:51.387Z,25.80
2022-10-29T16:17:22.015Z,24.70
2022-10-29T16:19:52.059Z,19.20
2022-10-29T16:22:30.392Z,16.70
2022-10-29T16:25:00.585Z,22.50
2022-10-29T16:27:31.039Z,47.00
2022-10-29T16:30:01.704Z,43.90
2022-10-29T16:32:32.032Z,20.30
2022-10-29T16:35:02.361Z,75.80
2022-10-29T16:37:33.842Z,47.70
2022-10-29T16:40:04.143Z,21.50
2022-10-29T16:42:37.088Z,34.30
2022-10-29T16:45:10.634Z,52.50
2022-10-29T16:47:41.076Z,55.80
2022-10-29T16:50:17.684Z,47.40
2022-10-29T16:52:48.388Z,48.00
2022-10-29T16:55:18.620Z,64.30
2022-10-29T16:57:48.667Z,40.50
2022-10-29T17:00:19.402Z,26.30
2022-10-29T17:02:49.471Z,23.00
2022-10-29T17:05:20.103Z,21.20
2022-10-29T17:07:53.425Z,22.50
2022-10-29T17:10:23.787Z,20.30
2022-10-29T17:12:54.390Z,19.70
2022-10-29T17:15:25.232Z,22.10
2022-10-29T17:17:55.880Z,49.20
2022-10-29T17:20:26.472Z,98.50
2022-10-29T17:22:58.725Z,87.40
2022-10-29T17:25:41.136Z,80.70
2022-10-29T17:28:13.434Z,99.80
2022-10-29T17:30:44.155Z,77.30
2022-10-29T17:33:14.668Z,47.60
2022-10-29T17:35:45.262Z,29.80
2022-10-29T17:38:15.607Z,46.40
2022-10-29T17:40:46.803Z,55.00
2022-10-29T17:43:18.826Z,49.80
2022-10-29T17:45:51.147Z,45.40
2022-10-29T17:48:24.078Z,48.60
2022-10-29T17:50:58.401Z,52.00
2022-10-29T17:53:29.886Z,57.40
2022-10-29T17:56:00.108Z,52.80
2022-10-29T17:58:31.651Z,39.70
2022-10-29T18:01:07.379Z,56.50
2022-10-29T18:03:38.395Z,28.40
2022-10-29T18:06:12.753Z,25.80
2022-10-29T18:08:43.609Z,33.60
2022-10-29T18:11:19.918Z,53.50
2022-10-29T18:13:51.291Z,64.90
2022-10-29T18:16:24.168Z,49.60
2022-10-29T18:19:02.085Z,44.50
2022-10-29T18:21:35.880Z,48.20
2022-10-29T18:24:06.785Z,47.40
2022-10-29T18:26:37.559Z,51.70
2022-10-29T18:29:11.412Z,45.20
2022-10-29T18:31:45.369Z,22.40
2022-10-29T18:34:17.408Z,41.50
2022-10-29T18:36:52.031Z,49.30
2022-10-29T18:39:22.203Z,42.50
2022-10-29T18:41:52.634Z,53.30
2022-10-29T18:44:21.553Z,43.20
2022-10-29T18:46:52.213Z,35.50
2022-10-29T18:49:22.813Z,29.00
2022-10-29T18:51:54.554Z,36.40
2022-10-29T18:54:24.588Z,42.40
2022-10-29T18:56:55.720Z,43.90
2022-10-29T18:59:25.666Z,36.70
2022-10-29T19:01:56.061Z,37.70
2022-10-29T19:04:25.693Z,39.70
2022-10-29T19:06:56.217Z,36.90
2022-10-29T19:09:26.684Z,26.10
2022-10-29T19:11:59.499Z,24.50
2022-10-29T19:14:29.753Z,53.90
2022-10-29T19:16:59.748Z,37.00
2022-10-29T19:19:29.679Z,27.00
2022-10-29T19:21:59.793Z,36.30
2022-10-29T19:24:32.134Z,24.80
2022-10-29T19:27:02.162Z,26.40
2022-10-29T19:29:32.232Z,38.90
2022-10-29T19:32:04.565Z,52.80
2022-10-29T19:34:35.100Z,48.50
2022-10-29T19:37:04.883Z,31.40
2022-10-29T19:39:34.852Z,36.70
2022-10-29T19:42:06.836Z,52.90
2022-10-29T19:44:37.117Z,26.40
2022-10-29T19:47:07.180Z,25.80
2022-10-29T19:49:39.589Z,23.20
2022-10-29T19:52:09.592Z,27.90
2022-10-29T19:54:40.182Z,40.20
2022-10-29T19:57:14.292Z,32.80
2022-10-29T19:59:44.708Z,31.70
2022-10-29T20:02:14.731Z,34.30
2022-10-29T20:04:45.428Z,36.10
2022-10-29T20:07:16.191Z,35.20
2022-10-29T20:09:46.532Z,35.40
2022-10-29T20:12:16.656Z,32.70
2022-10-29T20:14:46.932Z,31.60
2022-10-29T20:17:17.556Z,31.90
2022-10-29T20:19:47.874Z,32.40
2022-10-29T20:22:16.797Z,31.80
2022-10-29T20:24:47.403Z,31.60
2022-10-29T20:27:16.980Z,25.80
2022-10-29T20:29:45.786Z,25.10
2022-10-29T20:32:16.432Z,30.40
2022-10-29T20:34:46.776Z,26.50
2022-10-29T20:37:17.823Z,31.00
2022-10-29T20:39:48.384Z,29.50
2022-10-29T20:42:17.272Z,36.10
2022-10-29T20:44:49.971Z,29.50
2022-10-29T20:47:19.891Z,29.30
2022-10-29T20:49:49.887Z,35.40
2022-10-29T20:52:19.871Z,29.80
2022-10-29T20:54:50.155Z,28.80
2022-10-29T20:57:20.489Z,26.80
2022-10-29T20:59:50.946Z,26.70
2022-10-29T21:02:21.193Z,26.90
2022-10-29T21:04:51.360Z,29.40
2022-10-29T21:07:21.649Z,29.80
2022-10-29T21:09:52.291Z,29.90
2022-10-29T21:12:22.217Z,32.30
2022-10-29T21:14:52.596Z,29.70
2022-10-29T21:17:22.912Z,42.10
2022-10-29T21:19:53.393Z,30.20
2022-10-29T21:22:24.066Z,26.10
2022-10-29T21:24:54.156Z,29.40
2022-10-29T21:27:24.423Z,28.50
2022-10-29T21:29:56.906Z,38.00
2022-10-29T21:32:27.591Z,26.30
2022-10-29T21:34:57.673Z,25.20
2022-10-29T21:37:27.739Z,25.40
2022-10-29T21:40:00.208Z,20.80
2022-10-29T21:42:34.188Z,23.30
2022-10-29T21:45:04.550Z,25.90
2022-10-29T21:47:34.572Z,24.80
2022-10-29T21:50:05.732Z,25.20
2022-10-29T21:52:36.287Z,26.40
2022-10-29T21:55:07.019Z,22.70
2022-10-29T21:57:37.857Z,29.90
2022-10-29T22:00:13.364Z,29.70
2022-10-29T22:02:43.761Z,33.70
2022-10-29T22:05:13.988Z,32.60
2022-10-29T22:07:44.401Z,26.70
2022-10-29T22:10:14.661Z,30.10
2022-10-29T22:12:44.888Z,28.80
2022-10-29T22:15:13.734Z,30.90
2022-10-29T22:17:45.575Z,29.70
2022-10-29T22:20:15.663Z,27.60
2022-10-29T22:22:46.085Z,28.50
2022-10-29T22:25:14.992Z,31.70
2022-10-29T22:27:44.959Z,32.20
2022-10-29T22:30:15.033Z,27.50
2022-10-29T22:32:45.198Z,25.20
2022-10-29T22:35:15.666Z,28.20
2022-10-29T22:37:45.805Z,27.90
2022-10-29T22:40:14.761Z,31.20
2022-10-29T22:42:44.719Z,28.30
2022-10-29T22:45:15.434Z,25.10
2022-10-29T22:47:45.913Z,24.50
2022-10-29T22:50:16.078Z,20.10
2022-10-29T22:52:46.113Z,20.60
2022-10-29T22:55:16.679Z,21.50
2022-10-29T22:57:46.613Z,23.00
2022-10-29T23:00:16.750Z,20.20
2022-10-29T23:02:46.937Z,20.60
2022-10-29T23:05:17.039Z,23.80
2022-10-29T23:07:46.036Z,21.70
2022-10-29T23:10:16.282Z,19.60
2022-10-29T23:12:46.071Z,19.40
2022-10-29T23:15:16.597Z,22.20
2022-10-29T23:17:46.285Z,21.10
2022-10-29T23:20:16.559Z,19.50
2022-10-29T23:22:48.657Z,20.60
2022-10-29T23:25:18.646Z,18.30
2022-10-29T23:27:48.836Z,18.60
2022-10-29T23:30:19.343Z,17.90
2022-10-29T23:32:49.570Z,16.20
2022-10-29T23:35:19.544Z,17.80
2022-10-29T23:37:49.747Z,19.60
2022-10-29T23:40:19.394Z,19.20
2022-10-29T23:42:49.527Z,19.50
2022-10-29T23:45:19.580Z,17.80
2022-10-29T23:47:49.747Z,19.30
2022-10-29T23:50:19.415Z,18.30
2022-10-29T23:52:49.522Z,18.30
2022-10-29T23:55:19.775Z,24.70
2022-10-29T23:57:49.823Z,19.10
